createdAt,value
2022-12-25T00:01:55.210Z,8.57
2022-12-25T00:04:23.247Z,8.22
2022-12-25T00:06:51.378Z,8.12
2022-12-25T00:09:20.783Z,7.92
2022-12-25T00:11:48.963Z,7.77
2022-12-25T00:14:16.985Z,7.71
2022-12-25T00:16:46.144Z,7.31
2022-12-25T00:19:14.252Z,7.43
2022-12-25T00:21:42.325Z,7.44
2022-12-25T00:24:10.817Z,7.62
2022-12-25T00:26:40.405Z,7.37
2022-12-25T00:29:08.520Z,7.71
2022-12-25T00:31:36.717Z,7.61
2022-12-25T00:34:04.888Z,7.45
2022-12-25T00:36:39.496Z,7.77
2022-12-25T00:39:09.700Z,7.82
2022-12-25T00:41:55.181Z,7.62
2022-12-25T00:44:24.662Z,7.37
2022-12-25T00:46:52.811Z,7.60
2022-12-25T00:49:22.811Z,7.40
2022-12-25T00:51:50.913Z,7.68
2022-12-25T00:54:19.376Z,7.33
2022-12-25T00:56:48.096Z,7.53
2022-12-25T00:59:16.293Z,7.36
2022-12-25T01:01:45.893Z,7.72
2022-12-25T01:04:14.694Z,8.22
2022-12-25T01:06:42.820Z,8.01
2022-12-25T01:09:28.336Z,8.27
2022-12-25T01:11:56.489Z,7.68
2022-12-25T01:14:24.533Z,7.59
2022-12-25T01:16:54.071Z,7.68
2022-12-25T01:19:22.307Z,7.69
2022-12-25T01:21:50.332Z,7.72
2022-12-25T01:24:18.509Z,7.55
2022-12-25T01:26:46.633Z,7.63
2022-12-25T01:29:14.700Z,7.94
2022-12-25T01:31:42.831Z,8.20
2022-12-25T01:34:12.314Z,8.26
2022-12-25T01:36:40.387Z,8.26
2022-12-25T01:39:08.445Z,8.52
2022-12-25T01:41:36.585Z,8.56
2022-12-25T01:44:07.744Z,8.94
2022-12-25T01:46:36.871Z,8.96
2022-12-25T01:49:09.674Z,9.20
2022-12-25T01:51:43.875Z,9.36
2022-12-25T01:54:17.226Z,9.01
2022-12-25T01:56:49.235Z,8.16
2022-12-25T01:59:20.710Z,8.05
2022-12-25T02:01:49.751Z,7.87
2022-12-25T02:04:23.439Z,7.65
2022-12-25T02:06:53.097Z,7.74
2022-12-25T02:09:21.163Z,7.67
2022-12-25T02:11:57.974Z,7.69
2022-12-25T02:14:26.770Z,7.63
2022-12-25T02:17:02.109Z,7.70
2022-12-25T02:19:50.259Z,7.32
2022-12-25T02:22:31.351Z,6.94
2022-12-25T02:25:13.855Z,7.14
2022-12-25T02:28:11.375Z,7.23
2022-12-25T02:30:43.990Z,7.57
2022-12-25T02:33:34.485Z,7.45
2022-12-25T02:36:08.630Z,7.77
2022-12-25T02:38:59.994Z,8.12
2022-12-25T02:41:30.218Z,7.43
2022-12-25T02:44:20.245Z,7.62
2022-12-25T02:47:06.565Z,7.26
2022-12-25T02:49:53.935Z,7.32
2022-12-25T02:52:41.737Z,7.38
2022-12-25T02:55:31.488Z,6.91
2022-12-25T02:58:26.698Z,7.01
2022-12-25T03:01:19.547Z,7.08
2022-12-25T03:04:08.958Z,7.08
2022-12-25T03:06:44.759Z,7.28
2022-12-25T03:09:36.217Z,7.37
2022-12-25T03:12:14.578Z,7.32
2022-12-25T03:15:00.404Z,7.18
2022-12-25T03:17:31.580Z,7.31
2022-12-25T03:20:17.114Z,7.24
2022-12-25T03:23:04.994Z,7.23
2022-12-25T03:25:51.409Z,7.19
2022-12-25T03:28:19.607Z,7.05
2022-12-25T03:31:14.185Z,7.26
2022-12-25T03:34:17.527Z,7.18
2022-12-25T03:36:59.147Z,7.32
2022-12-25T03:39:53.465Z,7.73
2022-12-25T03:42:38.907Z,7.63
2022-12-25T03:45:31.823Z,8.13
2022-12-25T03:48:23.241Z,7.73
2022-12-25T03:51:15.466Z,7.94
2022-12-25T03:54:05.486Z,7.67
2022-12-25T03:56:52.518Z,7.82
2022-12-25T03:59:39.226Z,7.93
2022-12-25T04:02:25.287Z,8.00
2022-12-25T04:05:10.999Z,7.96
2022-12-25T04:07:57.832Z,7.31
2022-12-25T04:10:43.568Z,7.05
2022-12-25T04:13:28.927Z,7.24
2022-12-25T04:16:14.564Z,7.19
2022-12-25T04:18:59.961Z,6.98
2022-12-25T04:21:46.077Z,6.96
2022-12-25T04:24:33.075Z,7.48
2022-12-25T04:27:18.441Z,7.55
2022-12-25T04:30:03.791Z,8.14
2022-12-25T04:32:49.149Z,8.10
2022-12-25T04:35:35.046Z,8.06
2022-12-25T04:38:03.446Z,7.40
2022-12-25T04:40:32.877Z,6.90
2022-12-25T04:43:00.935Z,6.98
2022-12-25T04:45:29.037Z,6.92
2022-12-25T04:47:57.203Z,6.89
2022-12-25T04:50:25.269Z,6.90
2022-12-25T04:52:53.344Z,7.06
2022-12-25T04:55:21.517Z,7.00
2022-12-25T04:57:50.954Z,6.70
2022-12-25T05:00:19.687Z,6.53
2022-12-25T05:02:47.791Z,6.63
2022-12-25T05:05:16.045Z,7.01
2022-12-25T05:07:44.187Z,6.84
2022-12-25T05:10:12.850Z,7.38
2022-12-25T05:12:40.887Z,7.46
2022-12-25T05:15:11.535Z,7.05
2022-12-25T05:17:39.642Z,7.52
2022-12-25T05:20:08.920Z,7.20
2022-12-25T05:22:36.993Z,7.48
2022-12-25T05:25:05.390Z,7.72
2022-12-25T05:27:33.448Z,7.58
2022-12-25T05:30:01.548Z,7.98
2022-12-25T05:32:31.065Z,7.59
2022-12-25T05:35:00.380Z,7.40
2022-12-25T05:37:28.429Z,7.70
2022-12-25T05:39:56.475Z,7.32
2022-12-25T05:42:24.530Z,7.06
2022-12-25T05:44:52.606Z,6.99
2022-12-25T05:47:20.664Z,7.10
2022-12-25T05:49:50.178Z,7.13
2022-12-25T05:52:18.293Z,6.97
2022-12-25T05:54:46.321Z,7.19
2022-12-25T05:57:14.533Z,7.36
2022-12-25T05:59:42.651Z,7.41
2022-12-25T06:02:10.832Z,7.46
2022-12-25T06:04:38.928Z,7.45
2022-12-25T06:07:08.540Z,7.95
2022-12-25T06:09:36.681Z,8.03
2022-12-25T06:12:05.333Z,7.95
2022-12-25T06:14:33.570Z,7.32
2022-12-25T06:17:01.828Z,7.52
2022-12-25T06:19:29.969Z,7.45
2022-12-25T06:21:58.098Z,7.44
2022-12-25T06:24:27.816Z,6.96
2022-12-25T06:26:55.925Z,7.43
2022-12-25T06:29:24.111Z,7.15
2022-12-25T06:31:57.214Z,6.89
2022-12-25T06:34:25.654Z,6.78
2022-12-25T06:36:53.874Z,6.97
2022-12-25T06:39:22.661Z,6.88
2022-12-25T06:41:52.144Z,7.27
2022-12-25T06:44:20.323Z,7.73
2022-12-25T06:46:48.405Z,7.29
2022-12-25T06:49:16.566Z,7.40
2022-12-25T06:51:44.656Z,7.14
2022-12-25T06:54:12.821Z,7.27
2022-12-25T06:56:40.900Z,7.01
2022-12-25T06:59:12.237Z,7.15
2022-12-25T07:01:47.264Z,7.50
2022-12-25T07:04:20.637Z,7.25
2022-12-25T07:06:48.848Z,7.30
2022-12-25T07:09:16.877Z,6.75
2022-12-25T07:11:45.030Z,6.58
2022-12-25T07:14:23.773Z,6.55
2022-12-25T07:16:53.190Z,6.53
2022-12-25T07:19:21.319Z,6.83
2022-12-25T07:21:49.660Z,6.69
2022-12-25T07:24:20.311Z,6.74
2022-12-25T07:26:48.512Z,6.78
2022-12-25T07:29:19.503Z,6.87
2022-12-25T07:31:47.928Z,7.48
2022-12-25T07:34:17.805Z,6.85
2022-12-25T07:36:46.197Z,6.80
2022-12-25T07:39:14.456Z,6.79
2022-12-25T07:41:42.478Z,6.54
2022-12-25T07:44:15.839Z,6.56
2022-12-25T07:46:45.410Z,6.70
2022-12-25T07:49:13.792Z,6.62
2022-12-25T07:51:41.815Z,7.03
2022-12-25T07:54:10.033Z,6.79
2022-12-25T07:56:38.103Z,6.63
2022-12-25T07:59:06.217Z,6.64
2022-12-25T08:01:34.572Z,6.79
2022-12-25T08:04:04.630Z,6.89
2022-12-25T08:06:34.501Z,7.18
2022-12-25T08:09:06.140Z,7.07
2022-12-25T08:11:34.316Z,7.23
2022-12-25T08:14:02.428Z,7.41
2022-12-25T08:16:30.540Z,7.65
2022-12-25T08:18:58.627Z,7.28
2022-12-25T08:21:28.438Z,7.85
2022-12-25T08:23:56.573Z,7.74
2022-12-25T08:26:24.701Z,7.28
2022-12-25T08:28:53.262Z,7.55
2022-12-25T08:31:23.673Z,7.56
2022-12-25T08:33:53.668Z,8.03
2022-12-25T08:36:21.978Z,7.94
2022-12-25T08:38:54.580Z,7.77
2022-12-25T08:41:27.293Z,7.72
2022-12-25T08:43:55.446Z,8.11
2022-12-25T08:46:23.562Z,7.89
2022-12-25T08:48:51.885Z,7.67
2022-12-25T08:51:22.683Z,7.61
2022-12-25T08:53:53.820Z,8.08
2022-12-25T08:56:22.606Z,7.86
2022-12-25T08:58:50.786Z,7.90
2022-12-25T09:01:18.970Z,7.79
2022-12-25T09:03:47.146Z,8.31
2022-12-25T09:06:17.173Z,8.61
2022-12-25T09:08:49.267Z,8.53
2022-12-25T09:11:21.243Z,8.51
2022-12-25T09:13:50.097Z,8.17
2022-12-25T09:16:21.197Z,8.34
2022-12-25T09:18:50.216Z,8.36
2022-12-25T09:21:19.286Z,8.30
2022-12-25T09:23:47.640Z,8.52
2022-12-25T09:26:17.570Z,8.54
2022-12-25T09:28:51.998Z,8.58
2022-12-25T09:31:20.886Z,8.52
2022-12-25T09:33:49.583Z,9.37
2022-12-25T09:36:18.024Z,8.84
2022-12-25T09:38:46.070Z,9.24
2022-12-25T09:41:18.432Z,9.45
2022-12-25T09:43:52.569Z,9.76
2022-12-25T09:46:23.586Z,9.51
2022-12-25T09:49:03.806Z,9.37
2022-12-25T09:51:35.859Z,9.16
2022-12-25T09:54:12.031Z,9.55
2022-12-25T09:56:40.075Z,9.13
2022-12-25T09:59:18.383Z,9.45
2022-12-25T10:02:01.432Z,9.26
2022-12-25T10:04:52.665Z,9.06
2022-12-25T10:07:31.614Z,9.62
2022-12-25T10:10:10.731Z,9.39
2022-12-25T10:12:51.071Z,9.11
2022-12-25T10:15:31.721Z,9.30
2022-12-25T10:18:15.169Z,9.40
2022-12-25T10:20:51.529Z,9.63
2022-12-25T10:23:23.816Z,9.50
2022-12-25T10:25:53.930Z,9.68
2022-12-25T10:28:27.686Z,9.47
2022-12-25T10:31:02.669Z,9.93
2022-12-25T10:33:31.345Z,10.01
2022-12-25T10:35:59.570Z,10.21
2022-12-25T10:38:27.636Z,10.29
2022-12-25T10:41:14.693Z,10.14
2022-12-25T10:43:47.835Z,10.51
2022-12-25T10:46:19.148Z,10.96
2022-12-25T10:48:51.254Z,10.62
2022-12-25T10:51:29.792Z,11.10
2022-12-25T10:53:58.051Z,11.20
2022-12-25T10:56:26.159Z,11.40
2022-12-25T10:59:06.378Z,11.28
2022-12-25T11:01:36.182Z,11.47
2022-12-25T11:04:04.723Z,11.26
2022-12-25T11:06:34.633Z,11.34
2022-12-25T11:09:03.849Z,11.39
2022-12-25T11:11:32.468Z,10.68
2022-12-25T11:14:02.767Z,10.72
2022-12-25T11:16:33.055Z,10.74
2022-12-25T11:19:03.228Z,11.05
2022-12-25T11:21:33.276Z,11.44
2022-12-25T11:24:02.965Z,11.76
2022-12-25T11:26:36.559Z,11.98
2022-12-25T11:29:11.473Z,12.13
2022-12-25T11:31:42.421Z,12.17
2022-12-25T11:34:25.192Z,11.81
2022-12-25T11:36:54.574Z,11.90
2022-12-25T11:39:26.484Z,12.24
2022-12-25T11:42:00.525Z,11.95
2022-12-25T11:44:37.736Z,12.06
2022-12-25T11:47:13.011Z,12.27
2022-12-25T11:49:50.217Z,12.30
2022-12-25T11:52:21.537Z,12.14
2022-12-25T11:54:56.607Z,12.56
2022-12-25T11:57:27.977Z,12.80
2022-12-25T12:00:01.167Z,13.13
2022-12-25T12:02:35.809Z,11.62
2022-12-25T12:05:17.690Z,12.53
2022-12-25T12:07:58.315Z,12.18
2022-12-25T12:10:36.984Z,12.51
2022-12-25T12:13:29.587Z,12.19
2022-12-25T12:15:58.631Z,12.34
2022-12-25T12:18:32.187Z,12.45
2022-12-25T12:21:04.735Z,13.29
2022-12-25T12:23:35.968Z,13.81
2022-12-25T12:26:05.613Z,13.29
2022-12-25T12:28:45.884Z,13.93
2022-12-25T12:31:15.138Z,14.04
2022-12-25T12:33:50.702Z,14.45
2022-12-25T12:36:34.447Z,14.47
2022-12-25T12:39:03.626Z,14.29
2022-12-25T12:41:45.894Z,13.74
2022-12-25T12:44:16.522Z,13.73
2022-12-25T12:46:53.434Z,13.23
2022-12-25T12:49:27.013Z,13.84
2022-12-25T12:52:07.419Z,14.29
2022-12-25T12:54:54.526Z,14.05
2022-12-25T12:57:29.525Z,14.43
2022-12-25T13:00:04.823Z,14.04
2022-12-25T13:03:02.293Z,14.24
2022-12-25T13:05:39.836Z,14.04
2022-12-25T13:08:26.745Z,14.15
2022-12-25T13:11:06.585Z,14.36
2022-12-25T13:13:37.841Z,13.68
2022-12-25T13:16:07.577Z,13.79
2022-12-25T13:18:35.883Z,13.82
2022-12-25T13:21:06.460Z,13.63
2022-12-25T13:23:39.130Z,13.87
2022-12-25T13:26:13.589Z,13.87
2022-12-25T13:28:42.030Z,14.32
2022-12-25T13:31:16.333Z,14.36
2022-12-25T13:33:47.788Z,14.06
2022-12-25T13:36:16.330Z,13.77
2022-12-25T13:38:47.478Z,13.66
2022-12-25T13:41:37.824Z,13.92
2022-12-25T13:44:15.056Z,14.29
2022-12-25T13:46:43.163Z,14.31
2022-12-25T13:49:16.440Z,14.13
2022-12-25T13:51:44.826Z,14.32
2022-12-25T13:54:16.548Z,14.54
2022-12-25T13:56:51.403Z,14.61
2022-12-25T13:59:21.338Z,14.61
2022-12-25T14:01:50.758Z,14.13
2022-12-25T14:04:22.277Z,14.05
2022-12-25T14:06:52.003Z,14.22
2022-12-25T14:09:21.774Z,13.90
2022-12-25T14:11:52.510Z,13.88
2022-12-25T14:14:23.233Z,13.79
2022-12-25T14:16:56.519Z,13.69
2022-12-25T14:19:28.032Z,13.53
2022-12-25T14:22:00.459Z,13.59
2022-12-25T14:24:32.335Z,13.69
2022-12-25T14:27:02.903Z,13.58
2022-12-25T14:29:37.809Z,13.53
2022-12-25T14:32:08.885Z,13.45
2022-12-25T14:34:37.168Z,13.26
2022-12-25T14:37:05.923Z,13.25
2022-12-25T14:39:37.369Z,13.35
2022-12-25T14:42:14.984Z,13.22
2022-12-25T14:44:43.097Z,13.26
2022-12-25T14:47:22.349Z,13.22
2022-12-25T14:49:51.095Z,13.27
2022-12-25T14:52:22.773Z,13.13
2022-12-25T14:54:56.825Z,13.08
2022-12-25T14:57:30.108Z,13.10
2022-12-25T15:00:06.435Z,13.08
2022-12-25T15:02:41.670Z,13.01
2022-12-25T15:05:28.815Z,12.94
2022-12-25T15:08:21.953Z,12.89
2022-12-25T15:11:01.798Z,12.72
2022-12-25T15:13:31.935Z,12.67
2022-12-25T15:16:04.249Z,12.41
2022-12-25T15:18:37.821Z,12.42
2022-12-25T15:21:06.291Z,12.30
2022-12-25T15:23:34.426Z,12.21
2022-12-25T15:26:03.951Z,12.11
2022-12-25T15:28:32.111Z,12.08
2022-12-25T15:31:00.242Z,12.06
2022-12-25T15:33:29.564Z,11.92
2022-12-25T15:35:57.601Z,11.77
2022-12-25T15:38:25.810Z,11.80
2022-12-25T15:40:53.884Z,11.82
2022-12-25T15:43:40.370Z,11.73
2022-12-25T15:46:10.607Z,11.56
2022-12-25T15:48:38.753Z,11.49
2022-12-25T15:51:07.008Z,11.43
2022-12-25T15:53:35.086Z,11.39
2022-12-25T15:56:03.314Z,11.34
2022-12-25T15:58:32.840Z,11.27
2022-12-25T16:01:01.068Z,11.16
2022-12-25T16:03:29.198Z,11.14
2022-12-25T16:05:57.385Z,11.08
2022-12-25T16:08:25.496Z,10.98
2022-12-25T16:10:53.939Z,10.87
2022-12-25T16:13:23.289Z,10.75
2022-12-25T16:15:52.818Z,10.69
2022-12-25T16:18:21.391Z,10.57
2022-12-25T16:20:49.472Z,10.62
2022-12-25T16:23:17.657Z,10.60
2022-12-25T16:25:45.964Z,10.58
2022-12-25T16:28:14.223Z,10.54
2022-12-25T16:30:43.236Z,10.39
2022-12-25T16:33:13.023Z,10.35
2022-12-25T16:35:41.125Z,10.38
2022-12-25T16:38:09.193Z,10.24
2022-12-25T16:40:37.330Z,10.23
2022-12-25T16:43:05.352Z,10.03
2022-12-25T16:45:38.243Z,10.08
2022-12-25T16:48:06.685Z,9.75
2022-12-25T16:50:38.710Z,9.88
2022-12-25T16:53:06.939Z,9.53
2022-12-25T16:55:36.894Z,9.71
2022-12-25T16:58:05.151Z,9.78
2022-12-25T17:00:33.372Z,9.83
2022-12-25T17:03:01.802Z,9.80
2022-12-25T17:05:30.066Z,9.75
2022-12-25T17:08:00.396Z,9.64
2022-12-25T17:10:28.511Z,9.65
2022-12-25T17:12:56.713Z,9.62
2022-12-25T17:15:24.927Z,9.43
2022-12-25T17:17:52.961Z,9.57
2022-12-25T17:20:21.049Z,9.54
2022-12-25T17:22:50.096Z,9.56
2022-12-25T17:25:19.587Z,9.58
2022-12-25T17:27:50.371Z,9.61
2022-12-25T17:30:18.617Z,9.65
2022-12-25T17:32:47.192Z,9.67
2022-12-25T17:35:16.005Z,9.67
2022-12-25T17:37:44.039Z,9.54
2022-12-25T17:40:12.959Z,9.52
2022-12-25T17:42:42.484Z,9.48
2022-12-25T17:45:11.357Z,9.58
2022-12-25T17:47:39.386Z,9.55
2022-12-25T17:50:08.797Z,9.36
2022-12-25T17:52:36.880Z,9.19
2022-12-25T17:55:05.753Z,9.01
2022-12-25T17:57:33.859Z,8.96
2022-12-25T18:00:03.482Z,8.78
2022-12-25T18:02:32.976Z,8.72
2022-12-25T18:05:01.182Z,8.82
2022-12-25T18:07:29.277Z,8.76
2022-12-25T18:09:57.450Z,8.78
2022-12-25T18:12:25.529Z,8.84
2022-12-25T18:14:53.738Z,8.97
2022-12-25T18:17:23.216Z,8.97
2022-12-25T18:19:51.813Z,8.89
2022-12-25T18:22:19.865Z,9.00
2022-12-25T18:24:47.999Z,9.05
2022-12-25T18:27:16.108Z,8.86
2022-12-25T18:29:44.163Z,8.75
2022-12-25T18:32:12.312Z,8.81
2022-12-25T18:34:41.760Z,8.84
2022-12-25T18:37:09.822Z,8.81
2022-12-25T18:39:37.902Z,8.87
2022-12-25T18:42:23.525Z,8.89
2022-12-25T18:44:54.509Z,8.76
2022-12-25T18:47:22.752Z,8.84
2022-12-25T18:49:53.026Z,8.80
2022-12-25T18:52:50.130Z,8.79
2022-12-25T18:55:10.779Z,8.74
2022-12-25T18:57:40.867Z,8.77
2022-12-25T19:00:10.144Z,8.79
2022-12-25T19:02:38.327Z,8.76
2022-12-25T19:05:08.422Z,8.74
2022-12-25T19:07:37.181Z,8.75
2022-12-25T19:10:05.723Z,8.67
2022-12-25T19:12:33.883Z,8.75
2022-12-25T19:15:02.344Z,8.72
2022-12-25T19:17:32.101Z,8.66
2022-12-25T19:20:00.573Z,8.62
2022-12-25T19:22:30.592Z,8.56
2022-12-25T19:24:58.652Z,8.59
2022-12-25T19:27:26.755Z,8.67
2022-12-25T19:29:54.805Z,8.55
2022-12-25T19:32:23.000Z,8.63
2022-12-25T19:34:51.124Z,8.56
2022-12-25T19:37:19.318Z,8.48
2022-12-25T19:39:48.901Z,8.63
2022-12-25T19:42:18.961Z,8.38
2022-12-25T19:44:47.061Z,8.38
2022-12-25T19:47:15.131Z,8.42
2022-12-25T19:49:44.226Z,8.59
2022-12-25T19:52:14.090Z,8.36
2022-12-25T19:54:42.210Z,8.48
2022-12-25T19:57:11.636Z,8.58
2022-12-25T19:59:39.943Z,8.62
2022-12-25T20:02:10.608Z,8.58
2022-12-25T20:04:38.790Z,8.58
2022-12-25T20:07:06.852Z,8.63
2022-12-25T20:09:34.919Z,8.69
2022-12-25T20:12:03.076Z,8.71
2022-12-25T20:14:32.577Z,8.66
2022-12-25T20:17:00.784Z,8.61
2022-12-25T20:19:29.027Z,8.67
2022-12-25T20:21:58.628Z,8.65
2022-12-25T20:24:26.698Z,8.46
2022-12-25T20:26:58.990Z,8.60
2022-12-25T20:29:27.713Z,8.32
2022-12-25T20:31:57.179Z,8.47
2022-12-25T20:34:25.318Z,8.51
2022-12-25T20:36:53.546Z,8.36
2022-12-25T20:39:21.775Z,8.34
2022-12-25T20:41:49.859Z,8.31
2022-12-25T20:44:18.156Z,8.29
2022-12-25T20:46:46.234Z,8.36
2022-12-25T20:49:15.767Z,8.29
2022-12-25T20:51:43.871Z,8.09
2022-12-25T20:54:12.795Z,8.08
2022-12-25T20:56:40.826Z,8.11
2022-12-25T20:59:11.629Z,8.20
2022-12-25T21:01:39.874Z,7.96
2022-12-25T21:04:11.629Z,7.91
2022-12-25T21:06:45.405Z,8.04
2022-12-25T21:09:13.544Z,7.90
2022-12-25T21:11:41.603Z,7.95
2022-12-25T21:14:09.885Z,7.82
2022-12-25T21:16:38.008Z,7.78
2022-12-25T21:19:06.135Z,7.79
2022-12-25T21:21:36.027Z,7.73
2022-12-25T21:24:05.855Z,7.66
2022-12-25T21:26:33.965Z,7.82
2022-12-25T21:29:03.460Z,7.91
2022-12-25T21:31:51.977Z,7.90
2022-12-25T21:34:19.126Z,7.72
2022-12-25T21:36:47.229Z,7.76
2022-12-25T21:39:16.743Z,7.68
2022-12-25T21:41:44.899Z,7.67
2022-12-25T21:44:13.093Z,7.61
2022-12-25T21:46:41.242Z,7.51
2022-12-25T21:49:10.634Z,7.67
2022-12-25T21:51:56.304Z,7.69
2022-12-25T21:54:25.827Z,7.61
2022-12-25T21:56:53.861Z,7.60
2022-12-25T21:59:23.140Z,7.64
2022-12-25T22:01:52.860Z,7.66
2022-12-25T22:04:22.596Z,7.77
2022-12-25T22:07:08.118Z,7.69
2022-12-25T22:09:37.905Z,7.65
2022-12-25T22:12:26.214Z,7.67
2022-12-25T22:15:02.998Z,7.68
2022-12-25T22:17:51.390Z,7.78
2022-12-25T22:20:21.497Z,7.63
2022-12-25T22:22:50.372Z,7.58
2022-12-25T22:25:20.670Z,7.57
2022-12-25T22:27:49.367Z,7.59
2022-12-25T22:30:19.809Z,7.66
2022-12-25T22:32:48.412Z,7.70
2022-12-25T22:35:17.658Z,7.75
2022-12-25T22:37:45.890Z,7.68
2022-12-25T22:40:15.917Z,7.73
2022-12-25T22:42:45.399Z,7.71
2022-12-25T22:45:13.873Z,7.73
2022-12-25T22:47:42.532Z,7.63
2022-12-25T22:50:12.224Z,7.75
2022-12-25T22:52:41.178Z,7.78
2022-12-25T22:55:11.031Z,7.89
2022-12-25T22:57:39.144Z,7.96
2022-12-25T23:00:10.109Z,7.97
2022-12-25T23:02:38.488Z,8.03
2022-12-25T23:05:07.496Z,8.09
2022-12-25T23:07:35.700Z,8.14
2022-12-25T23:10:04.013Z,8.09
2022-12-25T23:12:49.357Z,8.17
2022-12-25T23:15:19.005Z,8.15
2022-12-25T23:18:04.283Z,8.15
2022-12-25T23:20:51.274Z,8.14
2022-12-25T23:23:37.262Z,8.24
2022-12-25T23:26:09.074Z,8.23
2022-12-25T23:28:55.348Z,8.27
2022-12-25T23:31:28.434Z,8.17
2022-12-25T23:33:56.675Z,8.32
2022-12-25T23:36:25.057Z,8.41
2022-12-25T23:38:53.171Z,8.19
2022-12-25T23:41:22.837Z,8.34
2022-12-25T23:43:50.922Z,8.39
2022-12-25T23:46:19.066Z,8.41
2022-12-25T23:48:49.039Z,8.18
2022-12-25T23:51:18.276Z,8.12
2022-12-25T23:53:46.314Z,8.15
2022-12-25T23:56:14.918Z,8.24
2022-12-25T23:58:45.292Z,8.24
